Kalamazoo, MI (49002)

3:54 PM EDT on September 17, 2014 (GMT -0400)
Hilton Insurance Agency | Change Station
CLOSE
Current Station
Personal Weather Station
Location: Portage, MI
Elevation: 850 ft
Nearby Weather Stations

Elev 850 ft 42.20 °N, 85.59 °W | Updated 48 seconds ago

Partly Cloudy
Partly Cloudy
64.8 °F
Feels Like 64.8 °F
N
0.9
Wind Variable Wind from West
Gusts 5.9 mph

Today
High -- | Low -- °F
--% Chance of Precip.
Yesterday
High -- | Low -- °F
Precip. -- in
7:24 AM 7:48 PM
Waning Crescent, 33% visible
Pressure 30.03 in
Visibility 10.0 miles
Clouds Scattered Clouds 5000 ft
Dew Point 32 °F
Humidity 57%
Rainfall 0.00 in
Snow Depth Not available.
UV 5 out of 12
Pollen 3.80 out of 12
Ozone Good
PM2.5 Good
Flu Activity Not available.
METAR KAZO 171853Z 29009KT 10SM SCT050 18/07 A3002 RMK AO2 SLP168 T01780067

More Conditions Fewer Conditions

Pressure 30.03 in
Visibility 10.0 miles
Clouds Scattered Clouds 5000 ft
Dew Point 32 °F
Humidity 57%
Rainfall 0.00 in
Snow Depth Not available.
UV 5 out of 12
Pollen 3.80 out of 12
Ozone Good
PM2.5 Good
Flu Activity Not available.
METAR KAZO 171853Z 29009KT 10SM SCT050 18/07 A3002 RMK AO2 SLP168 T01780067

More Conditions Fewer Conditions

10-Day Weather Forecast

Almanac

Astronomy

Sep. 17, 2014 Rise Set
Actual Time 7:24 AM EDT 7:48 PM EDT
Civil Twilight 6:56 AM EDT 8:16 PM EDT
Nautical Twilight 6:23 AM EDT 8:49 PM EDT
Astronomical Twilight 5:49 AM EDT 9:23 PM EDT
Moon 1:19 AM EDT 4:02 PM EDT
Length of Visible Light 13h 20m
Length of Day
12h 23m
Tomorrow will be 2m 49s shorter.
Waning Crescent, 33% of the Moon is Illuminated
Today
Waning Crescent
Sep 24
New
Oct 1
First Quarter
Oct 8
Full
Oct 15
Last Quarter

Today's Extremes

State Highs State Lows

Community

WunderPhotos

Upload Photos

1,754,149 photos uploaded!

Nearby

Air Quality

  Air Quality AQ Index Pollutant
Yesterday Good
OZONE
Yesterday Good
PM2.5
Current Good
OZONE
Current Good
PM2.5
Wednesday Good
OZONE
Wednesday Good
PM2.5
Thursday Good
OZONE
Thursday Good
PM2.5
Friday Good
OZONE
Friday Good
PM2.5
Saturday Good
OZONE
Saturday Good
PM2.5

Snow Depth

Station Depth Elevation
No new snow has been reported.

Earthquake Activity

City Distance Mag. Time & Date
No recent earthquake activity has been reported nearby.
Minimum magnitude displayed is 2.5.

Coastal Water Temperatures

Place Temperature
No Stations Reporting

Nearby Weather Stations